createdAt,value
2023-05-25T00:00:57.546Z,4.47
2023-05-25T00:03:28.775Z,3.73
2023-05-25T00:05:57.956Z,3.50
2023-05-25T00:08:25.680Z,5.17
2023-05-25T00:10:54.796Z,3.77
2023-05-25T00:13:22.496Z,3.63
2023-05-25T00:15:50.488Z,4.50
2023-05-25T00:18:18.437Z,4.27
2023-05-25T00:20:47.405Z,4.07
2023-05-25T00:23:15.955Z,3.83
2023-05-25T00:25:43.956Z,4.43
2023-05-25T00:28:13.463Z,2.83
2023-05-25T00:30:41.209Z,3.60
2023-05-25T00:33:10.480Z,3.93
2023-05-25T00:35:38.395Z,3.57
2023-05-25T00:38:06.072Z,4.23
2023-05-25T00:40:34.606Z,3.70
2023-05-25T00:43:02.368Z,3.77
2023-05-25T00:45:31.355Z,3.13
2023-05-25T00:48:00.451Z,3.57
2023-05-25T00:50:38.825Z,4.03
2023-05-25T00:53:07.286Z,3.53
2023-05-25T00:55:38.591Z,3.50
2023-05-25T00:58:07.030Z,4.13
2023-05-25T01:00:36.903Z,3.57
2023-05-25T01:03:11.987Z,4.07
2023-05-25T01:05:44.677Z,3.67
2023-05-25T01:08:15.167Z,3.03
2023-05-25T01:10:44.022Z,3.07
2023-05-25T01:13:12.300Z,3.37
2023-05-25T01:15:42.428Z,2.90
2023-05-25T01:18:10.249Z,3.20
2023-05-25T01:20:38.045Z,2.90
2023-05-25T01:23:13.968Z,3.13
2023-05-25T01:25:48.523Z,3.03
2023-05-25T01:28:22.786Z,3.07
2023-05-25T01:30:51.601Z,2.97
2023-05-25T01:33:19.987Z,3.23
2023-05-25T01:35:48.585Z,2.70
2023-05-25T01:38:18.757Z,3.30
2023-05-25T01:40:46.442Z,3.30
2023-05-25T01:43:14.228Z,3.63
2023-05-25T01:45:42.127Z,2.67
2023-05-25T01:48:17.009Z,3.50
2023-05-25T01:50:52.172Z,3.67
2023-05-25T01:53:24.735Z,3.60
2023-05-25T01:55:59.692Z,2.73
2023-05-25T01:58:29.101Z,2.80
2023-05-25T02:00:57.714Z,3.73
2023-05-25T02:03:25.860Z,3.27
2023-05-25T02:05:53.931Z,3.67
2023-05-25T02:08:22.950Z,2.60
2023-05-25T02:10:50.973Z,3.40
2023-05-25T02:13:18.742Z,2.63
2023-05-25T02:15:46.689Z,2.90
2023-05-25T02:18:17.705Z,2.87
2023-05-25T02:20:45.848Z,3.30
2023-05-25T02:23:13.533Z,3.20
2023-05-25T02:25:43.605Z,3.47
2023-05-25T02:28:11.547Z,3.37
2023-05-25T02:30:39.861Z,3.07
2023-05-25T02:33:07.518Z,3.10
2023-05-25T02:35:35.295Z,3.20
2023-05-25T02:38:02.981Z,3.60
2023-05-25T02:40:30.601Z,3.13
2023-05-25T02:42:59.658Z,3.10
2023-05-25T02:45:27.337Z,3.33
2023-05-25T02:47:55.071Z,3.40
2023-05-25T02:50:23.082Z,3.73
2023-05-25T02:52:50.878Z,3.90
2023-05-25T02:55:18.916Z,3.40
2023-05-25T02:57:46.728Z,3.40
2023-05-25T03:00:17.228Z,3.77
2023-05-25T03:02:46.933Z,3.70
2023-05-25T03:05:17.742Z,3.93
2023-05-25T03:07:45.848Z,4.10
2023-05-25T03:10:13.612Z,3.80
2023-05-25T03:12:41.221Z,4.00
2023-05-25T03:15:13.090Z,2.83
2023-05-25T03:17:42.193Z,3.43
2023-05-25T03:20:11.274Z,3.27
2023-05-25T03:22:38.960Z,3.60
2023-05-25T03:25:07.737Z,3.70
2023-05-25T03:27:35.557Z,3.43
2023-05-25T03:30:03.463Z,3.80
2023-05-25T03:32:32.311Z,3.67
2023-05-25T03:35:01.352Z,4.60
2023-05-25T03:37:28.941Z,3.93
2023-05-25T03:39:56.630Z,3.43
2023-05-25T03:42:24.265Z,3.90
2023-05-25T03:44:51.892Z,3.50
2023-05-25T03:47:19.617Z,4.60
2023-05-25T03:49:47.281Z,3.97
2023-05-25T03:52:16.323Z,3.37
2023-05-25T03:54:44.021Z,3.60
2023-05-25T03:57:11.719Z,3.60
2023-05-25T03:59:39.393Z,4.17
2023-05-25T04:02:07.103Z,4.17
2023-05-25T04:04:35.059Z,4.40
2023-05-25T04:07:02.783Z,4.50
2023-05-25T04:09:31.754Z,4.07
2023-05-25T04:11:59.408Z,4.67
2023-05-25T04:14:27.081Z,4.30
2023-05-25T04:16:55.246Z,3.90
2023-05-25T04:19:22.855Z,4.23
2023-05-25T04:21:50.567Z,4.07
2023-05-25T04:24:18.605Z,5.20
2023-05-25T04:26:47.585Z,4.80
2023-05-25T04:29:15.230Z,4.03
2023-05-25T04:31:45.587Z,4.30
2023-05-25T04:34:14.503Z,4.73
2023-05-25T04:36:43.175Z,4.33
2023-05-25T04:39:10.931Z,4.60
2023-05-25T04:41:39.251Z,4.67
2023-05-25T04:44:10.344Z,4.30
2023-05-25T04:46:39.114Z,4.47
2023-05-25T04:49:08.231Z,5.30
2023-05-25T04:51:36.095Z,4.70
2023-05-25T04:54:03.852Z,5.37
2023-05-25T04:56:31.488Z,5.03
2023-05-25T04:58:59.407Z,5.60
2023-05-25T05:01:29.265Z,5.67
2023-05-25T05:03:57.313Z,5.47
2023-05-25T05:06:25.818Z,5.13
2023-05-25T05:08:53.512Z,5.23
2023-05-25T05:11:23.497Z,5.20
2023-05-25T05:13:51.252Z,4.93
2023-05-25T05:16:20.857Z,5.17
2023-05-25T05:18:50.050Z,4.77
2023-05-25T05:21:17.795Z,4.90
2023-05-25T05:23:46.494Z,5.43
2023-05-25T05:26:15.215Z,5.00
2023-05-25T05:28:43.086Z,4.57
2023-05-25T05:31:12.190Z,5.23
2023-05-25T05:33:40.206Z,4.53
2023-05-25T05:36:09.677Z,5.37
2023-05-25T05:38:39.327Z,4.37
2023-05-25T05:41:13.329Z,5.23
2023-05-25T05:43:42.278Z,4.57
2023-05-25T05:46:10.586Z,5.17
2023-05-25T05:48:38.549Z,5.33
2023-05-25T05:51:07.014Z,5.13
2023-05-25T05:53:38.168Z,5.27
2023-05-25T05:56:07.147Z,4.77
2023-05-25T05:58:34.832Z,4.80
2023-05-25T06:01:03.385Z,4.57
2023-05-25T06:03:31.174Z,4.93
2023-05-25T06:05:58.940Z,5.07
2023-05-25T06:08:27.425Z,4.80
2023-05-25T06:10:56.991Z,4.63
2023-05-25T06:13:24.647Z,5.13
2023-05-25T06:15:52.419Z,5.67
2023-05-25T06:18:20.166Z,4.67
2023-05-25T06:20:47.945Z,5.27
2023-05-25T06:23:17.741Z,4.60
2023-05-25T06:25:45.861Z,5.00
2023-05-25T06:28:17.525Z,4.93
2023-05-25T06:30:45.156Z,4.50
2023-05-25T06:33:12.793Z,4.83
2023-05-25T06:35:40.471Z,4.90
2023-05-25T06:38:08.183Z,4.50
2023-05-25T06:40:35.807Z,4.53
2023-05-25T06:43:03.605Z,4.10
2023-05-25T06:45:32.696Z,4.50
2023-05-25T06:48:00.593Z,5.70
2023-05-25T06:50:28.378Z,5.40
2023-05-25T06:52:56.171Z,4.57
2023-05-25T06:55:23.813Z,4.40
2023-05-25T06:57:51.581Z,4.10
2023-05-25T07:00:21.481Z,4.70
2023-05-25T07:02:50.562Z,4.53
2023-05-25T07:05:18.581Z,4.37
2023-05-25T07:07:46.484Z,4.47
2023-05-25T07:10:14.131Z,4.50
2023-05-25T07:12:42.151Z,4.60
2023-05-25T07:15:11.569Z,4.53
2023-05-25T07:17:39.277Z,4.73
2023-05-25T07:20:10.663Z,4.60
2023-05-25T07:22:38.478Z,4.73
2023-05-25T07:25:07.161Z,3.80
2023-05-25T07:27:35.952Z,3.80
2023-05-25T07:30:03.752Z,4.53
2023-05-25T07:32:31.463Z,4.13
2023-05-25T07:34:59.153Z,3.47
2023-05-25T07:37:28.162Z,3.60
2023-05-25T07:39:55.840Z,3.43
2023-05-25T07:42:23.513Z,3.40
2023-05-25T07:44:51.184Z,4.23
2023-05-25T07:47:18.862Z,3.33
2023-05-25T07:49:46.639Z,3.10
2023-05-25T07:52:14.292Z,3.67
2023-05-25T07:54:43.330Z,3.20
2023-05-25T07:57:11.120Z,3.13
2023-05-25T07:59:38.853Z,3.30
2023-05-25T08:02:06.759Z,3.90
2023-05-25T08:04:35.657Z,3.30
2023-05-25T08:07:03.750Z,4.10
2023-05-25T08:09:31.423Z,4.83
2023-05-25T08:12:24.068Z,4.00
2023-05-25T08:14:49.436Z,4.43
2023-05-25T08:17:17.205Z,3.47
2023-05-25T08:19:44.974Z,3.90
2023-05-25T08:22:12.750Z,3.53
2023-05-25T08:24:40.445Z,3.73
2023-05-25T08:27:09.414Z,3.73
2023-05-25T08:29:37.162Z,2.97
2023-05-25T08:32:05.067Z,3.80
2023-05-25T08:34:32.738Z,4.00
2023-05-25T08:37:00.491Z,3.87
2023-05-25T08:39:28.151Z,4.30
2023-05-25T08:41:55.836Z,3.10
2023-05-25T08:44:24.989Z,3.87
2023-05-25T08:46:53.804Z,4.00
2023-05-25T08:49:23.988Z,4.27
2023-05-25T08:51:53.036Z,3.80
2023-05-25T08:54:23.856Z,3.53
2023-05-25T08:56:53.497Z,3.57
2023-05-25T08:59:38.822Z,3.90
2023-05-25T09:02:22.218Z,4.20
2023-05-25T09:04:49.989Z,3.77
2023-05-25T09:07:17.991Z,4.03
2023-05-25T09:09:46.575Z,3.70
2023-05-25T09:12:15.120Z,3.80
2023-05-25T09:14:48.196Z,4.13
2023-05-25T09:17:17.013Z,3.93
2023-05-25T09:19:45.006Z,4.23
2023-05-25T09:22:16.553Z,4.17
2023-05-25T09:24:45.471Z,3.70
2023-05-25T09:27:14.566Z,4.40
2023-05-25T09:29:42.233Z,4.03
2023-05-25T09:32:11.305Z,3.80
2023-05-25T09:34:39.118Z,4.07
2023-05-25T09:37:12.536Z,4.40
2023-05-25T09:39:41.300Z,4.17
2023-05-25T09:42:09.172Z,4.37
2023-05-25T09:44:37.017Z,4.03
2023-05-25T09:47:05.843Z,3.77
2023-05-25T09:49:34.920Z,3.80
2023-05-25T09:52:03.029Z,3.73
2023-05-25T09:54:30.914Z,4.20
2023-05-25T09:56:58.572Z,3.40
2023-05-25T09:59:26.657Z,4.13
2023-05-25T10:01:54.546Z,4.07
2023-05-25T10:04:22.425Z,4.13
2023-05-25T10:06:52.716Z,4.10
2023-05-25T10:09:21.615Z,4.00
2023-05-25T10:11:52.460Z,3.80
2023-05-25T10:17:15.564Z,3.90
2023-05-25T10:19:47.643Z,4.00
2023-05-25T10:22:21.945Z,3.13
2023-05-25T10:24:56.750Z,3.55
2023-05-25T10:27:30.457Z,3.47
2023-05-25T10:30:00.893Z,3.50
2023-05-25T10:32:30.258Z,3.22
2023-05-25T10:34:58.441Z,2.92
2023-05-25T10:37:29.370Z,3.20
2023-05-25T10:39:58.261Z,3.85
2023-05-25T10:42:27.000Z,3.22
2023-05-25T10:44:56.437Z,3.78
2023-05-25T10:47:25.161Z,3.20
2023-05-25T10:49:55.333Z,3.72
2023-05-25T10:52:23.360Z,3.95
2023-05-25T10:54:56.905Z,3.42
2023-05-25T10:57:26.040Z,3.50
2023-05-25T10:59:59.799Z,3.20
2023-05-25T11:02:29.157Z,3.13
2023-05-25T11:05:31.747Z,3.10
2023-05-25T11:08:00.848Z,3.03
2023-05-25T11:10:53.969Z,3.03
2023-05-25T11:13:41.447Z,3.17
2023-05-25T11:16:17.927Z,3.38
2023-05-25T11:18:47.359Z,2.92
2023-05-25T11:21:22.075Z,3.13
2023-05-25T11:24:00.098Z,2.95
2023-05-25T11:26:30.825Z,2.67
2023-05-25T11:28:59.824Z,3.38
2023-05-25T11:31:38.350Z,3.60
2023-05-25T11:34:11.876Z,2.97
2023-05-25T11:36:39.878Z,2.75
2023-05-25T11:39:20.565Z,2.65
2023-05-25T11:41:55.987Z,3.33
2023-05-25T11:44:29.053Z,2.85
2023-05-25T11:46:58.130Z,3.55
2023-05-25T11:49:28.791Z,2.90
2023-05-25T11:51:58.188Z,3.08
2023-05-25T11:54:27.378Z,2.63
2023-05-25T11:56:59.422Z,3.13
2023-05-25T11:59:29.708Z,3.50
2023-05-25T12:02:00.631Z,3.90
2023-05-25T12:04:29.016Z,3.35
2023-05-25T12:07:02.837Z,3.10
2023-05-25T12:09:30.640Z,3.72
2023-05-25T12:12:01.024Z,3.70
2023-05-25T12:14:28.761Z,3.38
2023-05-25T12:16:58.159Z,3.75
2023-05-25T12:19:26.074Z,3.83
2023-05-25T12:21:54.006Z,3.80
2023-05-25T12:24:21.853Z,3.60
2023-05-25T12:26:50.069Z,3.58
2023-05-25T12:29:19.155Z,4.00
2023-05-25T12:31:46.879Z,4.15
2023-05-25T12:34:17.130Z,4.28
2023-05-25T12:36:47.897Z,3.92
2023-05-25T12:39:17.147Z,3.60
2023-05-25T12:41:51.253Z,4.32
2023-05-25T12:44:27.505Z,4.15
2023-05-25T12:46:56.610Z,4.15
2023-05-25T12:49:34.826Z,3.97
2023-05-25T12:52:04.170Z,4.10
2023-05-25T12:54:35.806Z,4.07
2023-05-25T12:57:03.755Z,4.35
2023-05-25T12:59:32.973Z,4.38
2023-05-25T13:02:00.907Z,4.68
2023-05-25T13:04:28.660Z,4.30
2023-05-25T13:06:56.746Z,4.30
2023-05-25T13:09:26.727Z,3.95
2023-05-25T13:11:55.613Z,3.63
2023-05-25T13:14:23.965Z,4.88
2023-05-25T13:16:54.281Z,3.88
2023-05-25T13:19:23.021Z,4.45
2023-05-25T13:21:51.824Z,3.63
2023-05-25T13:24:20.546Z,4.05
2023-05-25T13:26:50.990Z,4.05
2023-05-25T13:29:19.079Z,4.50
2023-05-25T13:31:48.092Z,3.30
2023-05-25T13:34:17.596Z,3.67
2023-05-25T13:36:45.303Z,3.78
2023-05-25T13:39:14.551Z,3.70
2023-05-25T13:41:42.269Z,3.30
2023-05-25T13:44:11.159Z,3.20
2023-05-25T13:46:39.062Z,3.70
2023-05-25T13:49:06.902Z,3.55
2023-05-25T13:51:38.184Z,4.00
2023-05-25T13:54:06.148Z,4.05
2023-05-25T13:56:34.047Z,3.67
2023-05-25T13:59:01.689Z,3.60
2023-05-25T14:01:29.384Z,4.20
2023-05-25T14:03:59.761Z,4.10
2023-05-25T14:06:28.816Z,4.35
2023-05-25T14:08:58.130Z,3.22
2023-05-25T14:11:28.355Z,4.32
2023-05-25T14:13:56.534Z,4.07
2023-05-25T14:16:24.269Z,3.40
2023-05-25T14:18:52.067Z,3.70
2023-05-25T14:21:19.775Z,3.72
2023-05-25T14:23:47.565Z,3.47
2023-05-25T14:26:17.827Z,3.67
2023-05-25T14:28:45.582Z,3.95
2023-05-25T14:31:13.343Z,3.22
2023-05-25T14:33:42.965Z,4.40
2023-05-25T14:36:11.139Z,4.03
2023-05-25T14:38:38.994Z,3.40
2023-05-25T14:41:06.754Z,4.00
2023-05-25T14:43:35.773Z,3.63
2023-05-25T14:46:03.450Z,3.97
2023-05-25T14:48:31.284Z,4.05
2023-05-25T14:51:00.176Z,4.40
2023-05-25T14:53:27.866Z,4.10
2023-05-25T14:55:55.595Z,4.15
2023-05-25T14:58:23.304Z,4.20
2023-05-25T15:00:52.481Z,4.00
2023-05-25T15:03:20.298Z,3.92
2023-05-25T15:05:48.022Z,3.85
2023-05-25T15:08:15.909Z,3.95
2023-05-25T15:10:43.860Z,4.60
2023-05-25T15:13:13.365Z,4.30
2023-05-25T15:15:41.706Z,4.30
2023-05-25T15:18:10.918Z,3.92
2023-05-25T15:20:38.691Z,3.97
2023-05-25T15:23:06.653Z,3.80
2023-05-25T15:25:35.826Z,4.15
2023-05-25T15:28:03.946Z,4.22
2023-05-25T15:30:33.052Z,4.40
2023-05-25T15:33:00.893Z,4.82
2023-05-25T15:35:32.321Z,4.03
2023-05-25T15:38:00.865Z,3.35
2023-05-25T15:40:28.617Z,4.05
2023-05-25T15:42:56.318Z,4.32
2023-05-25T15:45:24.983Z,3.80
2023-05-25T15:47:52.674Z,4.30
2023-05-25T15:50:20.382Z,4.10
2023-05-25T15:52:49.385Z,5.10
2023-05-25T15:55:17.084Z,4.13
2023-05-25T15:57:44.764Z,4.00
2023-05-25T16:00:13.906Z,4.65
2023-05-25T16:02:41.619Z,4.38
2023-05-25T16:05:09.849Z,4.50
2023-05-25T16:07:37.546Z,3.80
2023-05-25T16:10:07.672Z,4.10
2023-05-25T16:12:35.332Z,4.15
2023-05-25T16:15:03.159Z,4.57
2023-05-25T16:17:30.855Z,4.07
2023-05-25T16:19:58.574Z,4.35
2023-05-25T16:22:26.260Z,3.97
2023-05-25T16:24:53.881Z,4.10
2023-05-25T16:27:22.849Z,4.22
2023-05-25T16:29:50.765Z,4.50
2023-05-25T16:32:18.649Z,3.75
2023-05-25T16:34:46.325Z,4.33
2023-05-25T16:37:14.072Z,4.50
2023-05-25T16:39:41.727Z,4.15
2023-05-25T16:42:09.472Z,4.65
2023-05-25T16:44:38.545Z,4.00
2023-05-25T16:47:06.785Z,4.75
2023-05-25T16:49:34.421Z,4.53
2023-05-25T16:52:02.603Z,4.25
2023-05-25T16:54:30.877Z,4.37
2023-05-25T16:56:58.529Z,4.15
2023-05-25T16:59:26.196Z,4.50
2023-05-25T17:01:55.763Z,4.55
2023-05-25T17:04:23.577Z,4.07
2023-05-25T17:06:51.324Z,4.87
2023-05-25T17:09:19.006Z,4.20
2023-05-25T17:11:46.629Z,4.68
2023-05-25T17:14:14.332Z,4.47
2023-05-25T17:16:42.175Z,4.00
2023-05-25T17:19:11.417Z,5.03
2023-05-25T17:21:39.732Z,4.30
2023-05-25T17:24:07.961Z,4.57
2023-05-25T17:26:35.691Z,4.80
2023-05-25T17:29:04.815Z,4.70
2023-05-25T17:31:32.702Z,5.28
2023-05-25T17:34:00.398Z,4.50
2023-05-25T17:36:29.440Z,5.75
2023-05-25T17:38:57.050Z,4.90
2023-05-25T17:41:24.676Z,4.83
2023-05-25T17:43:52.358Z,5.28
2023-05-25T17:46:20.030Z,5.43
2023-05-25T17:48:47.671Z,5.30
2023-05-25T17:51:15.435Z,5.33
2023-05-25T17:53:44.441Z,5.27
2023-05-25T17:56:12.103Z,4.67
2023-05-25T17:58:39.747Z,4.50
2023-05-25T18:01:07.534Z,5.20
2023-05-25T18:03:35.612Z,6.00
2023-05-25T18:06:03.455Z,4.80
2023-05-25T18:08:31.157Z,5.27
2023-05-25T18:11:00.322Z,5.17
2023-05-25T18:13:28.103Z,5.17
2023-05-25T18:15:55.834Z,5.03
2023-05-25T18:18:24.801Z,4.80
2023-05-25T18:20:52.572Z,5.70
2023-05-25T18:23:22.181Z,6.10
2023-05-25T18:25:49.946Z,5.50
2023-05-25T18:28:19.173Z,5.27
2023-05-25T18:30:46.908Z,5.40
2023-05-25T18:33:14.820Z,5.33
2023-05-25T18:35:42.768Z,5.20
2023-05-25T18:38:10.677Z,5.27
2023-05-25T18:40:38.448Z,4.37
2023-05-25T18:43:07.792Z,4.90
2023-05-25T18:45:36.920Z,4.97
2023-05-25T18:48:07.404Z,5.53
2023-05-25T18:50:35.546Z,5.50
2023-05-25T18:53:03.249Z,5.17
2023-05-25T18:55:31.005Z,5.40
2023-05-25T18:57:58.778Z,5.10
2023-05-25T19:00:26.745Z,5.37
2023-05-25T19:02:57.166Z,5.03
2023-05-25T19:05:25.317Z,5.57
2023-05-25T19:07:58.874Z,5.43
2023-05-25T19:10:28.076Z,5.40
2023-05-25T19:12:55.927Z,5.70
2023-05-25T19:15:23.924Z,5.37
2023-05-25T19:17:52.131Z,5.10
2023-05-25T19:20:21.559Z,4.70
2023-05-25T19:22:49.369Z,5.67
2023-05-25T19:25:17.221Z,4.90
2023-05-25T19:27:44.856Z,5.30
2023-05-25T19:30:13.162Z,5.20
2023-05-25T19:32:40.950Z,5.50
2023-05-25T19:35:09.094Z,6.03
2023-05-25T19:37:40.776Z,5.00
2023-05-25T19:40:10.917Z,6.27
2023-05-25T19:42:38.701Z,5.57
2023-05-25T19:45:07.140Z,5.77
2023-05-25T19:47:34.980Z,5.17
2023-05-25T19:50:03.225Z,4.80
2023-05-25T19:52:31.038Z,4.90
2023-05-25T19:55:00.252Z,4.40
2023-05-25T19:57:28.136Z,5.00
2023-05-25T19:59:55.930Z,5.03
2023-05-25T20:02:23.820Z,4.30
2023-05-25T20:04:51.691Z,4.67
2023-05-25T20:07:19.465Z,4.03
2023-05-25T20:09:47.244Z,4.67
2023-05-25T20:12:16.729Z,4.27
2023-05-25T20:14:44.822Z,4.07
2023-05-25T20:17:12.528Z,4.67
2023-05-25T20:19:40.295Z,4.13
2023-05-25T20:22:08.415Z,3.53
2023-05-25T20:24:36.321Z,4.67
2023-05-25T20:27:04.955Z,4.90
2023-05-25T20:29:34.540Z,5.17
2023-05-25T20:32:02.348Z,4.93
2023-05-25T20:34:30.142Z,4.97
2023-05-25T20:36:57.964Z,4.30
2023-05-25T20:39:25.702Z,4.73
2023-05-25T20:41:53.395Z,4.53
2023-05-25T20:44:21.508Z,4.43
2023-05-25T20:46:50.790Z,4.40
2023-05-25T20:49:18.496Z,4.83
2023-05-25T20:51:49.987Z,4.50
2023-05-25T20:54:17.850Z,4.40
2023-05-25T20:56:47.456Z,5.17
2023-05-25T20:59:15.398Z,5.13
2023-05-25T21:01:44.177Z,4.63
2023-05-25T21:04:13.464Z,4.47
2023-05-25T21:06:41.328Z,5.43
2023-05-25T21:09:09.031Z,4.67
2023-05-25T21:11:37.022Z,5.03
2023-05-25T21:14:05.211Z,5.00
2023-05-25T21:16:33.243Z,4.30
2023-05-25T21:19:01.000Z,4.20
2023-05-25T21:21:33.836Z,3.80
2023-05-25T21:24:02.317Z,4.47
2023-05-25T21:26:30.363Z,4.70
2023-05-25T21:28:58.481Z,4.40
2023-05-25T21:31:26.581Z,4.80
2023-05-25T21:33:54.281Z,5.17
2023-05-25T21:36:22.005Z,4.30
2023-05-25T21:38:51.433Z,4.93
2023-05-25T21:41:19.313Z,4.40
2023-05-25T21:43:47.145Z,4.20
2023-05-25T21:46:14.852Z,4.23
2023-05-25T21:48:42.638Z,4.53
2023-05-25T21:51:10.432Z,4.93
2023-05-25T21:53:38.237Z,4.80
2023-05-25T21:56:07.313Z,5.10
2023-05-25T21:58:35.035Z,5.00
2023-05-25T22:01:02.804Z,4.50
2023-05-25T22:03:30.594Z,4.87
2023-05-25T22:05:58.461Z,3.93
2023-05-25T22:08:26.139Z,5.10
2023-05-25T22:10:53.856Z,4.70
2023-05-25T22:13:23.039Z,4.97
2023-05-25T22:15:51.089Z,4.57
2023-05-25T22:18:18.843Z,4.43
2023-05-25T22:20:46.692Z,4.60
2023-05-25T22:23:14.523Z,4.20
2023-05-25T22:25:42.490Z,4.67
2023-05-25T22:28:10.391Z,4.87
2023-05-25T22:30:39.599Z,4.50
2023-05-25T22:33:07.409Z,4.40
2023-05-25T22:35:35.258Z,5.07
2023-05-25T22:38:03.088Z,4.57
2023-05-25T22:40:30.772Z,4.70
2023-05-25T22:42:58.555Z,4.43
2023-05-25T22:45:28.968Z,5.63
2023-05-25T22:47:58.102Z,5.30
2023-05-25T22:50:25.936Z,4.83
2023-05-25T22:52:53.931Z,5.13
2023-05-25T22:55:21.688Z,4.40
2023-05-25T22:57:51.287Z,5.43
2023-05-25T23:00:19.333Z,4.67
2023-05-25T23:02:47.177Z,4.40
2023-05-25T23:05:16.382Z,4.60
2023-05-25T23:07:44.890Z,5.07
2023-05-25T23:10:12.743Z,4.97
2023-05-25T23:12:40.574Z,5.13
2023-05-25T23:15:09.610Z,5.73
2023-05-25T23:17:37.409Z,5.00
2023-05-25T23:20:07.821Z,5.40
2023-05-25T23:22:37.244Z,5.67
2023-05-25T23:25:05.484Z,5.20
2023-05-25T23:27:33.249Z,5.93
2023-05-25T23:30:02.059Z,5.10
2023-05-25T23:32:29.852Z,5.67
2023-05-25T23:34:57.598Z,6.30
2023-05-25T23:37:25.274Z,5.87
2023-05-25T23:39:54.330Z,5.60
2023-05-25T23:42:22.218Z,6.80
2023-05-25T23:44:49.964Z,5.37
2023-05-25T23:47:17.733Z,5.30
2023-05-25T23:49:45.515Z,5.80
2023-05-25T23:52:13.277Z,5.50
2023-05-25T23:54:40.975Z,6.63
2023-05-25T23:57:10.160Z,5.47
2023-05-25T23:59:37.847Z,6.27
